Time;durP1;ratioP1;P1;durP2;ratioP2;P2;SDS_P1;SDS_P2;PMS_P1;PMS_P2;Temp;Humidity;BMP_temperature;BMP_pressure;BME280_temperature;BME280_humidity;BME280_pressure;Samples;Min_cycle;Max_cycle;Signal;HPM_P1;HPM_P2
2022/08/10 00:00:22;;;;;;;7.05;3.75;;;;;;;17.72;100.00;102284.00;5044813;28;20106;-82
2022/08/10 00:02:54;;;;;;;8.02;4.00;;;;;;;17.68;100.00;102284.44;5080385;28;20031;-81
2022/08/10 00:05:23;;;;;;;8.02;3.53;;;;;;;17.72;100.00;102289.53;5099568;28;20039;-81
2022/08/10 00:07:49;;;;;;;3.90;3.10;;;;;;;17.66;100.00;102289.19;5064028;28;20044;-83
2022/08/10 00:10:18;;;;;;;9.15;3.83;;;;;;;17.71;100.00;102290.56;5079349;28;20027;-83
2022/08/10 00:12:44;;;;;;;6.45;3.92;;;;;;;17.69;100.00;102288.94;5076618;28;20036;-81
2022/08/10 00:15:15;;;;;;;8.38;4.05;;;;;;;17.74;100.00;102286.63;5077216;28;20024;-81
2022/08/10 00:17:40;;;;;;;12.45;3.70;;;;;;;17.74;100.00;102289.41;5069907;28;20025;-82
2022/08/10 00:20:07;;;;;;;9.75;4.03;;;;;;;17.66;100.00;102287.31;5065205;28;20036;-81
2022/08/10 00:22:32;;;;;;;6.85;3.38;;;;;;;17.72;100.00;102281.22;5061512;28;20044;-81
2022/08/10 00:24:59;;;;;;;9.88;3.70;;;;;;;17.53;100.00;102278.28;5052877;28;20033;-81
2022/08/10 00:27:25;;;;;;;5.18;3.80;;;;;;;17.52;100.00;102282.09;5071166;28;20107;-82
2022/08/10 00:29:51;;;;;;;8.88;4.10;;;;;;;17.64;100.00;102281.91;5064902;28;20082;-83
2022/08/10 00:32:17;;;;;;;9.48;4.53;;;;;;;17.61;100.00;102286.81;5065783;28;20052;-81
2022/08/10 00:34:44;;;;;;;12.48;4.55;;;;;;;17.45;100.00;102270.66;5080840;28;20028;-82
2022/08/10 00:37:10;;;;;;;14.32;4.95;;;;;;;17.47;100.00;102270.53;5082065;28;20032;-82
2022/08/10 00:39:36;;;;;;;9.32;4.20;;;;;;;17.47;100.00;102276.94;5082785;28;20032;-81
2022/08/10 00:42:04;;;;;;;9.82;4.40;;;;;;;17.43;100.00;102273.56;5078677;28;20102;-81
2022/08/10 00:44:29;;;;;;;9.60;4.60;;;;;;;17.34;100.00;102270.69;5064792;28;20031;-81
2022/08/10 00:46:55;;;;;;;14.48;4.22;;;;;;;17.36;100.00;102263.13;5098630;28;20418;-81
2022/08/10 00:49:21;;;;;;;8.30;4.80;;;;;;;17.38;100.00;102267.53;5048864;28;20081;-81
2022/08/10 00:51:47;;;;;;;7.70;4.78;;;;;;;17.32;100.00;102267.19;5048438;28;20067;-81
2022/08/10 00:54:12;;;;;;;9.48;4.82;;;;;;;17.34;100.00;102270.69;5080852;28;20066;-81
2022/08/10 00:56:38;;;;;;;13.40;5.30;;;;;;;17.26;100.00;102274.97;5080824;28;20070;-82
2022/08/10 00:59:03;;;;;;;9.45;5.32;;;;;;;17.26;100.00;102272.22;5082403;28;20497;-81
2022/08/10 01:01:29;;;;;;;12.43;5.38;;;;;;;17.18;100.00;102263.69;5072181;28;20127;-80
2022/08/10 01:03:54;;;;;;;12.27;5.32;;;;;;;17.15;100.00;102265.84;5090215;28;20041;-81
2022/08/10 01:06:32;;;;;;;15.88;5.40;;;;;;;17.19;100.00;102265.44;5052735;28;20028;-79
2022/08/10 01:09:16;;;;;;;13.73;5.13;;;;;;;17.14;100.00;102266.88;5079214;28;20040;-81
2022/08/10 01:12:11;;;;;;;12.75;5.03;;;;;;;17.13;100.00;102265.97;5097308;28;20468;-80
2022/08/10 01:14:44;;;;;;;17.15;5.45;;;;;;;17.06;100.00;102264.75;5080090;28;20105;-80
2022/08/10 01:17:32;;;;;;;14.40;5.70;;;;;;;17.05;100.00;102262.97;5063207;28;20016;-81
2022/08/10 01:20:19;;;;;;;16.48;6.18;;;;;;;16.96;100.00;102263.75;5084296;28;20047;-82
2022/08/10 01:23:12;;;;;;;9.80;5.97;;;;;;;16.97;100.00;102257.19;5066467;28;20106;-80
2022/08/10 01:26:03;;;;;;;12.25;6.55;;;;;;;16.95;100.00;102254.56;5079592;28;20074;-81
2022/08/10 01:29:02;;;;;;;13.25;6.20;;;;;;;16.85;100.00;102254.44;5073892;28;20048;-81
2022/08/10 01:31:36;;;;;;;19.73;6.03;;;;;;;16.82;100.00;102253.81;5058854;28;20032;-81
2022/08/10 01:34:07;;;;;;;13.98;6.85;;;;;;;16.81;100.00;102250.16;5076833;28;20086;-81
2022/08/10 01:36:44;;;;;;;16.55;7.00;;;;;;;16.79;100.00;102254.06;5060212;28;20456;-81
2022/08/10 01:39:15;;;;;;;12.68;6.00;;;;;;;16.76;100.00;102248.78;5061487;28;20093;-80
2022/08/10 01:41:44;;;;;;;11.30;6.53;;;;;;;16.71;100.00;102250.06;5087465;28;20062;-81
2022/08/10 01:44:15;;;;;;;15.85;8.05;;;;;;;16.65;100.00;102250.56;5079046;28;20032;-80
2022/08/10 01:46:46;;;;;;;24.77;7.68;;;;;;;16.62;100.00;102255.47;5059079;28;20530;-79
2022/08/10 01:49:14;;;;;;;19.55;6.95;;;;;;;16.66;100.00;102259.72;5075562;28;20040;-80
2022/08/10 01:51:51;;;;;;;15.27;7.43;;;;;;;16.65;100.00;102252.44;5079917;28;20034;-80
2022/08/10 01:54:24;;;;;;;17.92;7.38;;;;;;;16.61;100.00;102253.69;5081486;28;20038;-81
2022/08/10 01:56:53;;;;;;;17.67;7.90;;;;;;;16.53;100.00;102262.63;5080978;28;20127;-80
2022/08/10 01:59:26;;;;;;;21.77;7.22;;;;;;;16.54;100.00;102253.31;5079134;28;20024;-81
2022/08/10 02:01:57;;;;;;;17.02;7.63;;;;;;;16.53;100.00;102259.88;5078046;28;20387;-81
2022/08/10 02:04:26;;;;;;;18.35;8.35;;;;;;;16.48;100.00;102249.19;5098414;28;20129;-83
2022/08/10 02:06:53;;;;;;;13.05;7.22;;;;;;;16.52;100.00;102253.44;5080674;28;20028;-81
2022/08/10 02:09:23;;;;;;;18.88;8.05;;;;;;;16.55;100.00;102255.09;5098754;28;20080;-81
2022/08/10 02:11:50;;;;;;;24.90;7.85;;;;;;;16.44;100.00;102253.19;5050146;28;20060;-81
2022/08/10 02:14:18;;;;;;;20.35;7.90;;;;;;;16.53;100.00;102252.44;5075759;28;20055;-81
2022/08/10 02:16:46;;;;;;;13.68;7.63;;;;;;;16.43;100.00;102254.22;5079963;28;20882;-81
2022/08/10 02:19:16;;;;;;;15.98;8.50;;;;;;;16.40;100.00;102260.00;5081418;28;20080;-81
2022/08/10 02:21:47;;;;;;;19.60;7.90;;;;;;;16.37;100.00;102251.06;5095733;28;20035;-80
2022/08/10 02:24:14;;;;;;;20.75;8.07;;;;;;;16.37;100.00;102245.53;5077626;28;20388;-80
2022/08/10 02:26:42;;;;;;;19.67;8.75;;;;;;;16.29;100.00;102244.28;5081950;28;20523;-81
2022/08/10 02:29:11;;;;;;;27.08;8.75;;;;;;;16.32;100.00;102259.75;5064390;28;20063;-79
2022/08/10 02:31:37;;;;;;;17.50;8.30;;;;;;;16.36;100.00;102252.94;5106217;28;20466;-80
2022/08/10 02:34:07;;;;;;;27.70;9.40;;;;;;;16.30;100.00;102261.75;5094501;28;20032;-81
2022/08/10 02:36:35;;;;;;;23.20;10.18;;;;;;;16.27;100.00;102251.81;5090010;28;20035;-79
2022/08/10 02:39:04;;;;;;;28.45;9.25;;;;;;;16.21;100.00;102248.66;5072454;28;20041;-81
2022/08/10 02:41:45;;;;;;;19.50;9.43;;;;;;;16.23;100.00;102255.81;5087357;28;20075;-80
2022/08/10 02:44:42;;;;;;;23.98;9.70;;;;;;;16.22;100.00;102255.97;5067209;28;20085;-78
2022/08/10 02:47:14;;;;;;;24.83;9.52;;;;;;;16.16;100.00;102252.66;5064545;28;20060;-79
2022/08/10 02:49:50;;;;;;;27.97;10.33;;;;;;;16.16;100.00;102249.03;5059192;28;20033;-78
2022/08/10 02:52:33;;;;;;;25.67;10.48;;;;;;;16.21;100.00;102251.44;5085762;28;20035;-80
2022/08/10 02:55:06;;;;;;;28.38;9.48;;;;;;;16.16;100.00;102249.91;5091496;28;20028;-80
2022/08/10 02:57:37;;;;;;;23.63;10.10;;;;;;;16.17;100.00;102245.28;5091694;28;20024;-80
2022/08/10 03:00:08;;;;;;;22.92;9.98;;;;;;;16.11;100.00;102237.47;5080469;28;20035;-78
2022/08/10 03:02:39;;;;;;;25.77;10.38;;;;;;;16.12;100.00;102228.19;5087894;28;20036;-79
2022/08/10 03:05:16;;;;;;;28.13;10.27;;;;;;;16.05;100.00;102233.31;5095505;28;20039;-80
2022/08/10 03:07:57;;;;;;;24.38;10.30;;;;;;;15.93;100.00;102229.66;5086035;28;20074;-80
2022/08/10 03:10:27;;;;;;;31.50;11.25;;;;;;;15.94;100.00;102231.44;5082935;28;20070;-80
2022/08/10 03:12:57;;;;;;;25.70;10.02;;;;;;;15.95;100.00;102227.66;5087404;28;20039;-80
2022/08/10 03:15:23;;;;;;;29.67;10.63;;;;;;;15.92;100.00;102227.00;5068868;28;20392;-79
2022/08/10 03:17:52;;;;;;;31.35;11.85;;;;;;;15.95;100.00;102224.91;5101246;28;20027;-80
2022/08/10 03:20:20;;;;;;;26.40;11.07;;;;;;;15.91;100.00;102231.66;5082473;28;20054;-80
2022/08/10 03:22:47;;;;;;;30.90;11.07;;;;;;;15.89;100.00;102225.41;5069739;28;20065;-79
2022/08/10 03:25:13;;;;;;;29.27;11.68;;;;;;;15.84;100.00;102230.41;5106588;28;20036;-79
2022/08/10 03:27:41;;;;;;;29.52;11.07;;;;;;;15.85;100.00;102218.34;5093174;28;20028;-80
2022/08/10 03:30:08;;;;;;;30.90;11.65;;;;;;;15.80;100.00;102221.47;5091968;28;20114;-80
2022/08/10 03:32:35;;;;;;;33.30;12.13;;;;;;;15.81;100.00;102227.88;5065467;28;20051;-79
2022/08/10 03:35:02;;;;;;;34.17;12.75;;;;;;;15.73;100.00;102214.66;5088712;28;20035;-79
2022/08/10 03:37:27;;;;;;;30.05;11.50;;;;;;;15.76;100.00;102227.38;5070931;28;20020;-80
2022/08/10 03:39:56;;;;;;;28.55;11.93;;;;;;;15.74;100.00;102227.47;5057381;28;20071;-80
2022/08/10 03:42:25;;;;;;;24.80;11.27;;;;;;;15.67;100.00;102222.53;5073346;28;20058;-80
2022/08/10 03:44:51;;;;;;;33.17;11.80;;;;;;;15.79;100.00;102229.91;5092573;28;20031;-78
2022/08/10 03:47:20;;;;;;;26.65;11.57;;;;;;;15.67;100.00;102219.78;5089315;28;20043;-79
2022/08/10 03:49:47;;;;;;;30.88;12.18;;;;;;;15.70;100.00;102233.34;5089482;28;20047;-79
2022/08/10 03:52:15;;;;;;;32.50;12.52;;;;;;;15.69;100.00;102232.47;5085329;28;20119;-80
2022/08/10 03:54:42;;;;;;;33.20;12.10;;;;;;;15.65;100.00;102227.31;5092044;28;20054;-80
2022/08/10 03:57:08;;;;;;;29.75;11.52;;;;;;;15.59;100.00;102224.03;5073222;28;20093;-79
2022/08/10 03:59:35;;;;;;;36.08;12.48;;;;;;;15.47;100.00;102232.38;5089338;28;20032;-79
2022/08/10 04:02:02;;;;;;;27.27;11.65;;;;;;;15.57;100.00;102237.06;5054984;28;20028;-79
2022/08/10 04:04:28;;;;;;;34.58;12.65;;;;;;;15.53;100.00;102237.44;5074000;28;20380;-79
2022/08/10 04:06:57;;;;;;;25.98;11.32;;;;;;;15.50;100.00;102227.50;5063784;28;20097;-79
2022/08/10 04:09:27;;;;;;;27.45;11.68;;;;;;;15.53;100.00;102231.91;5107944;28;20023;-79
2022/08/10 04:11:53;;;;;;;23.63;10.82;;;;;;;15.46;100.00;102223.19;5108311;28;20479;-80
2022/08/10 04:14:18;;;;;;;20.45;10.82;;;;;;;15.48;100.00;102228.59;5069422;28;20081;-81
2022/08/10 04:16:44;;;;;;;26.85;10.82;;;;;;;15.45;100.00;102232.50;5069560;28;20040;-79
2022/08/10 04:19:12;;;;;;;23.73;10.75;;;;;;;15.49;100.00;102234.00;5065323;28;20039;-78
2022/08/10 04:21:42;;;;;;;23.05;10.88;;;;;;;15.52;100.00;102225.50;5069972;28;20541;-78
2022/08/10 04:24:14;;;;;;;24.85;9.60;;;;;;;15.57;100.00;102233.41;5065213;28;20372;-77
2022/08/10 04:26:41;;;;;;;19.57;9.93;;;;;;;15.54;100.00;102239.19;5091532;28;20039;-78
2022/08/10 04:29:07;;;;;;;21.27;9.60;;;;;;;15.53;100.00;102234.69;5090686;28;20029;-78
2022/08/10 04:31:34;;;;;;;20.00;9.07;;;;;;;15.47;100.00;102236.03;5109062;28;20036;-79
2022/08/10 04:34:01;;;;;;;15.10;8.45;;;;;;;15.53;100.00;102242.97;5108847;28;20415;-78
2022/08/10 04:36:27;;;;;;;19.90;9.07;;;;;;;15.56;100.00;102242.69;5102045;28;20032;-77
2022/08/10 04:38:54;;;;;;;22.95;8.75;;;;;;;15.52;100.00;102236.53;5103222;28;20035;-78
2022/08/10 04:41:20;;;;;;;14.23;8.27;;;;;;;15.55;100.00;102238.19;5089491;28;20471;-79
2022/08/10 04:43:46;;;;;;;16.42;8.05;;;;;;;15.51;100.00;102239.41;5106862;28;20052;-78
2022/08/10 04:46:12;;;;;;;16.63;8.00;;;;;;;15.56;100.00;102234.41;5068176;28;20036;-78
2022/08/10 04:48:37;;;;;;;12.27;7.38;;;;;;;15.53;100.00;102240.19;5075428;28;20040;-78
2022/08/10 04:51:04;;;;;;;13.82;7.43;;;;;;;15.60;100.00;102242.34;5089038;28;20506;-78
2022/08/10 04:53:29;;;;;;;12.63;6.82;;;;;;;15.60;100.00;102234.06;5047210;28;20082;-79
2022/08/10 04:55:55;;;;;;;10.77;6.50;;;;;;;15.68;100.00;102235.34;5089837;28;20036;-78
2022/08/10 04:58:21;;;;;;;13.50;6.45;;;;;;;15.61;100.00;102226.69;5095514;28;20026;-78
2022/08/10 05:00:46;;;;;;;11.85;6.85;;;;;;;15.63;100.00;102231.06;5073972;28;20043;-78
2022/08/10 05:03:11;;;;;;;11.75;6.85;;;;;;;15.75;100.00;102233.84;5076837;28;20072;-78
2022/08/10 05:05:37;;;;;;;10.45;6.50;;;;;;;15.76;100.00;102241.19;5094204;28;20061;-78
2022/08/10 05:08:03;;;;;;;9.30;5.82;;;;;;;15.75;100.00;102233.84;5075896;28;20062;-78
2022/08/10 05:10:28;;;;;;;11.48;6.55;;;;;;;15.71;100.00;102240.59;5069201;28;20035;-78
2022/08/10 05:12:54;;;;;;;10.80;6.50;;;;;;;15.78;100.00;102236.41;5073578;28;20494;-79
2022/08/10 05:15:23;;;;;;;12.38;6.40;;;;;;;15.80;100.00;102231.63;5073363;28;20058;-78
2022/08/10 05:17:49;;;;;;;9.77;6.70;;;;;;;15.84;100.00;102235.94;5075334;28;20099;-78
2022/08/10 05:20:15;;;;;;;14.32;6.88;;;;;;;15.84;100.00;102233.16;5101989;28;20477;-78
2022/08/10 05:22:43;;;;;;;13.13;6.40;;;;;;;15.90;100.00;102237.31;5087173;28;20115;-78
2022/08/10 05:25:14;;;;;;;12.57;6.70;;;;;;;15.93;100.00;102243.47;5054838;28;20044;-78
2022/08/10 05:27:41;;;;;;;8.43;6.70;;;;;;;16.03;100.00;102239.97;5103801;28;20036;-78
2022/08/10 05:30:10;;;;;;;9.00;6.30;;;;;;;16.14;100.00;102237.22;5090297;28;20043;-78
2022/08/10 05:32:36;;;;;;;13.27;6.60;;;;;;;16.27;100.00;102242.66;5076378;28;20028;-78
2022/08/10 05:35:02;;;;;;;10.20;6.68;;;;;;;16.49;100.00;102245.41;5072825;28;20100;-77
2022/08/10 05:37:29;;;;;;;7.30;6.47;;;;;;;16.51;100.00;102240.66;5089076;28;20036;-78
2022/08/10 05:39:56;;;;;;;14.88;6.65;;;;;;;16.63;100.00;102233.22;5075944;28;20094;-77
2022/08/10 05:42:26;;;;;;;8.13;6.07;;;;;;;16.82;100.00;102243.63;5091755;28;20410;-80
2022/08/10 05:44:51;;;;;;;11.35;7.13;;;;;;;17.21;100.00;102245.94;5038695;28;20036;-78
2022/08/10 05:47:18;;;;;;;7.95;6.25;;;;;;;17.18;100.00;102247.06;5071210;28;20138;-78
2022/08/10 05:49:46;;;;;;;8.45;5.93;;;;;;;17.47;100.00;102245.59;5090847;28;20090;-79
2022/08/10 05:52:12;;;;;;;6.43;5.63;;;;;;;17.55;100.00;102240.28;5086527;28;20056;-78
2022/08/10 05:54:37;;;;;;;10.80;6.15;;;;;;;17.53;100.00;102243.19;5108292;28;20039;-77
2022/08/10 05:57:03;;;;;;;8.05;5.90;;;;;;;17.89;100.00;102245.66;5086478;28;20127;-78
2022/08/10 05:59:33;;;;;;;9.25;5.72;;;;;;;18.02;100.00;102243.59;5099432;28;20095;-78
2022/08/10 06:02:02;;;;;;;9.88;5.35;;;;;;;18.28;100.00;102249.56;5065301;28;20028;-78
2022/08/10 06:04:36;;;;;;;11.20;6.40;;;;;;;18.42;100.00;102262.19;5076751;28;20039;-78
2022/08/10 06:07:04;;;;;;;7.68;5.60;;;;;;;18.33;100.00;102257.44;5087545;28;20027;-78
2022/08/10 06:09:30;;;;;;;10.35;5.60;;;;;;;18.55;100.00;102268.38;5074085;28;20441;-78
2022/08/10 06:11:58;;;;;;;8.80;5.28;;;;;;;18.76;100.00;102253.56;5089598;28;20032;-79
2022/08/10 06:17:10;;;;;;;11.00;6.07;;;;;;;18.95;100.00;102263.00;5061953;28;20032;-78
2022/08/10 06:19:37;;;;;;;17.25;6.00;;;;;;;19.25;100.00;102262.91;5058647;28;20023;-78
2022/08/10 06:22:03;;;;;;;12.20;5.90;;;;;;;19.10;100.00;102259.69;5040007;28;20028;-78
2022/08/10 06:24:29;;;;;;;9.63;6.25;;;;;;;19.23;100.00;102259.41;5059839;28;20039;-78
2022/08/10 06:26:55;;;;;;;13.20;6.00;;;;;;;19.69;100.00;102259.69;5090663;28;20047;-77
2022/08/10 06:29:22;;;;;;;11.63;5.63;;;;;;;19.50;100.00;102260.59;5060218;28;20032;-79
2022/08/10 06:31:50;;;;;;;14.32;5.93;;;;;;;19.88;100.00;102261.63;5056898;28;20051;-79
2022/08/10 06:34:28;;;;;;;10.90;5.47;;;;;;;19.98;100.00;102258.84;5096213;28;20028;-80
2022/08/10 06:36:58;;;;;;;10.55;6.00;;;;;;;19.92;100.00;102265.88;5092690;28;20032;-80
2022/08/10 06:39:24;;;;;;;9.90;6.13;;;;;;;20.11;100.00;102262.19;5076101;28;20043;-78
2022/08/10 06:41:58;;;;;;;15.43;6.40;;;;;;;19.90;100.00;102264.28;5078219;28;20062;-78
2022/08/10 06:44:31;;;;;;;11.77;5.68;;;;;;;20.71;100.00;102263.75;5059612;28;20046;-80
2022/08/10 06:46:58;;;;;;;9.20;6.35;;;;;;;20.42;100.00;102261.09;5077978;28;20028;-82
2022/08/10 06:49:24;;;;;;;9.52;6.15;;;;;;;20.48;100.00;102261.34;5060860;28;20028;-82
2022/08/10 06:51:54;;;;;;;9.77;5.50;;;;;;;21.04;100.00;102256.69;5096331;28;20051;-82
2022/08/10 06:54:28;;;;;;;7.10;5.82;;;;;;;21.41;100.00;102254.81;5067601;28;20031;-80
2022/08/10 06:56:56;;;;;;;9.30;5.88;;;;;;;21.53;100.00;102261.06;5082824;28;20067;-80
2022/08/10 06:59:42;;;;;;;8.40;5.38;;;;;;;21.63;100.00;102262.75;5102848;28;20039;-82
2022/08/10 07:02:12;;;;;;;12.07;5.72;;;;;;;21.48;100.00;102259.66;5085976;28;20495;-81
2022/08/10 07:04:47;;;;;;;8.57;5.65;;;;;;;22.52;100.00;102257.16;5068287;28;20387;-82
2022/08/10 07:07:27;;;;;;;7.63;4.90;;;;;;;22.28;100.00;102269.00;5102420;28;20075;-82
2022/08/10 07:09:54;;;;;;;6.68;5.97;;;;;;;22.29;100.00;102268.00;5087370;28;20130;-81
2022/08/10 07:12:22;;;;;;;9.88;5.25;;;;;;;22.51;100.00;102269.34;5070280;28;20028;-81
2022/08/10 07:14:50;;;;;;;12.57;5.50;;;;;;;22.36;100.00;102269.09;5099585;28;20388;-81
2022/08/10 07:17:22;;;;;;;7.75;5.10;;;;;;;22.70;100.00;102276.63;5055922;28;20034;-81
2022/08/10 07:19:53;;;;;;;8.15;5.13;;;;;;;23.42;100.00;102274.28;5085646;28;20047;-82
2022/08/10 07:22:21;;;;;;;8.45;4.93;;;;;;;24.02;100.00;102284.31;5085999;28;20035;-81
2022/08/10 07:24:48;;;;;;;16.33;5.72;;;;;;;23.88;100.00;102273.84;5068772;28;20421;-81
2022/08/10 07:27:17;;;;;;;13.13;5.13;;;;;;;24.22;100.00;102281.16;5067883;28;20086;-80
2022/08/10 07:29:44;;;;;;;7.88;4.75;;;;;;;23.70;100.00;102278.69;5077081;28;20044;-81
2022/08/10 07:32:11;;;;;;;10.93;5.28;;;;;;;24.01;100.00;102278.91;5065293;28;20036;-82
2022/08/10 07:34:39;;;;;;;7.40;5.00;;;;;;;23.97;100.00;102272.78;5100673;28;20035;-82
2022/08/10 07:37:07;;;;;;;11.23;5.78;;;;;;;24.56;97.45;102283.75;5066278;28;20034;-80
2022/08/10 07:39:36;;;;;;;13.63;5.30;;;;;;;24.21;100.00;102273.81;5084738;28;20042;-81
2022/08/10 07:42:07;;;;;;;8.68;5.47;;;;;;;25.02;97.03;102280.25;5066975;28;20048;-83
2022/08/10 07:44:34;;;;;;;11.30;5.57;;;;;;;24.01;100.00;102281.69;5066805;28;20078;-82
2022/08/10 07:47:03;;;;;;;9.38;4.57;;;;;;;25.42;98.23;102286.72;5063673;28;20041;-82
2022/08/10 07:49:38;;;;;;;10.85;4.97;;;;;;;25.31;95.77;102284.31;5067173;28;20028;-82
2022/08/10 07:52:09;;;;;;;8.00;4.43;;;;;;;25.46;97.64;102282.47;5102874;28;20036;-83
2022/08/10 07:54:44;;;;;;;10.23;4.32;;;;;;;25.25;97.42;102279.41;5083496;28;20465;-79
2022/08/10 07:57:16;;;;;;;16.95;5.32;;;;;;;25.76;90.86;102276.13;5083848;28;20036;-81
2022/08/10 07:59:45;;;;;;;8.50;4.10;;;;;;;26.51;87.86;102280.88;5104062;28;20482;-82
2022/08/10 08:02:26;;;;;;;10.15;4.60;;;;;;;26.16;87.28;102290.91;5082850;28;20483;-82
2022/08/10 08:04:53;;;;;;;15.37;4.60;;;;;;;25.68;90.62;102271.47;5080045;28;20541;-82
2022/08/10 08:07:20;;;;;;;11.68;4.47;;;;;;;25.71;90.96;102293.53;5098929;28;20032;-82
2022/08/10 08:09:48;;;;;;;10.20;4.25;;;;;;;26.09;87.39;102282.38;5062246;28;20039;-81
2022/08/10 08:12:14;;;;;;;5.50;4.20;;;;;;;26.22;87.88;102281.72;5060299;28;20392;-83
2022/08/10 08:14:43;;;;;;;9.95;4.65;;;;;;;27.28;79.88;102289.94;5074269;28;20036;-81
2022/08/10 08:17:09;;;;;;;11.70;4.57;;;;;;;26.87;78.80;102268.88;5080414;28;20027;-81
2022/08/10 08:19:36;;;;;;;10.07;3.95;;;;;;;27.21;81.85;102277.75;5099033;28;20028;-82
2022/08/10 08:22:04;;;;;;;10.52;4.45;;;;;;;26.92;81.89;102271.97;5080236;28;20471;-82
2022/08/10 08:24:33;;;;;;;12.35;4.65;;;;;;;27.09;78.71;102275.47;5081123;28;20035;-82
2022/08/10 08:27:01;;;;;;;9.30;4.07;;;;;;;27.11;78.21;102269.63;5099269;28;20027;-83
2022/08/10 08:29:28;;;;;;;9.07;4.93;;;;;;;27.19;76.92;102265.81;5065188;28;20024;-82
2022/08/10 08:31:54;;;;;;;8.45;4.30;;;;;;;27.16;77.03;102275.53;5080065;28;20377;-81
2022/08/10 08:34:21;;;;;;;9.45;4.55;;;;;;;27.48;74.14;102262.06;5079780;28;20039;-81
2022/08/10 08:36:51;;;;;;;15.82;5.43;;;;;;;27.38;71.85;102262.41;5053856;28;20021;-82
2022/08/10 08:39:17;;;;;;;15.80;6.22;;;;;;;28.26;65.21;102264.16;5060572;28;20082;-82
2022/08/10 08:42:20;;;;;;;7.05;4.63;;;;;;;28.11;69.83;102265.09;5053697;28;20049;-83
2022/08/10 08:45:00;;;;;;;10.02;4.97;;;;;;;28.07;68.07;102260.06;5052059;28;20029;-82
2022/08/10 08:47:44;;;;;;;14.77;5.75;;;;;;;27.90;68.27;102263.16;5077442;28;20103;-82
2022/08/10 08:50:38;;;;;;;15.80;5.18;;;;;;;28.26;68.39;102262.19;5078730;28;20064;-81
2022/08/10 08:53:13;;;;;;;18.45;5.00;;;;;;;28.17;71.93;102263.41;5054716;28;20120;-81
2022/08/10 08:55:45;;;;;;;14.75;5.05;;;;;;;28.15;69.98;102272.06;5055924;28;20064;-83
2022/08/10 08:58:43;;;;;;;11.98;5.10;;;;;;;28.65;68.50;102266.38;5077634;28;20025;-83
2022/08/10 09:01:26;;;;;;;14.73;5.13;;;;;;;29.33;64.24;102263.69;5062600;28;20039;-82
2022/08/10 09:04:09;;;;;;;21.73;5.55;;;;;;;29.28;64.18;102260.63;5061354;28;20058;-83
2022/08/10 09:07:17;;;;;;;15.50;5.47;;;;;;;28.70;70.34;102252.53;5081725;28;20028;-80
2022/08/10 09:10:18;;;;;;;15.82;5.28;;;;;;;29.43;65.39;102253.94;5076875;28;21001;-82
2022/08/10 09:12:56;;;;;;;11.82;5.40;;;;;;;29.42;65.53;102255.03;5049209;28;20040;-83
2022/08/10 09:15:28;;;;;;;14.25;5.88;;;;;;;28.65;68.04;102262.72;5059559;28;20086;-82
2022/08/10 09:18:15;;;;;;;12.57;5.70;;;;;;;28.68;67.93;102256.63;5077287;28;20028;-82
2022/08/10 09:20:57;;;;;;;15.30;5.75;;;;;;;28.49;70.14;102256.28;5075748;28;20047;-82
2022/08/10 09:23:47;;;;;;;18.88;5.15;;;;;;;28.53;69.00;102251.09;5075505;28;20488;-80
2022/08/10 09:26:21;;;;;;;12.65;5.13;;;;;;;28.74;65.38;102248.22;5068599;28;20373;-82
2022/08/10 09:28:51;;;;;;;19.95;5.78;;;;;;;29.15;60.08;102249.25;5077729;28;20025;-82
2022/08/10 09:31:24;;;;;;;19.27;5.45;;;;;;;28.71;67.52;102244.94;5074035;28;20028;-82
2022/08/10 09:34:11;;;;;;;18.27;5.65;;;;;;;29.19;63.59;102244.09;5058657;28;20044;-82
2022/08/10 09:36:49;;;;;;;19.05;6.10;;;;;;;29.02;63.93;102241.63;5058130;28;20032;-82
2022/08/10 09:39:52;;;;;;;10.52;4.45;;;;;;;28.76;63.77;102242.34;5075577;28;20040;-81
2022/08/10 09:42:45;;;;;;;12.65;5.05;;;;;;;29.49;62.00;102234.19;5075462;28;20063;-81
2022/08/10 09:45:22;;;;;;;11.50;4.82;;;;;;;29.68;62.18;102223.16;5057238;28;20149;-81
2022/08/10 09:48:16;;;;;;;13.35;5.43;;;;;;;29.50;59.88;102232.25;5074655;28;20450;-81
2022/08/10 09:50:56;;;;;;;14.70;5.07;;;;;;;28.96;63.00;102220.78;5076493;28;20036;-82
2022/08/10 09:53:25;;;;;;;18.48;5.13;;;;;;;29.41;61.99;102225.06;5074695;28;20043;-82
2022/08/10 09:56:15;;;;;;;22.10;5.20;;;;;;;29.28;61.94;102223.06;5076455;28;20123;-81
2022/08/10 09:59:23;;;;;;;22.42;5.38;;;;;;;29.43;60.97;102217.25;5076313;28;20036;-82
2022/08/10 10:02:17;;;;;;;17.77;5.28;;;;;;;29.67;60.04;102218.59;5068722;28;20046;-80
2022/08/10 10:04:58;;;;;;;16.60;5.10;;;;;;;29.45;58.88;102218.78;5065344;28;20048;-82
2022/08/10 10:07:28;;;;;;;14.43;5.10;;;;;;;30.14;54.66;102215.78;5060387;28;20043;-82
2022/08/10 10:10:02;;;;;;;13.63;4.85;;;;;;;30.00;57.74;102217.75;5037966;28;20037;-82
2022/08/10 10:13:04;;;;;;;19.40;4.50;;;;;;;30.50;54.81;102208.78;5039715;28;20035;-82
2022/08/10 10:15:47;;;;;;;8.83;4.93;;;;;;;30.08;55.60;102202.53;5055956;28;20033;-82
2022/08/10 10:18:18;;;;;;;16.02;5.20;;;;;;;29.99;55.56;102211.25;5059989;28;20024;-84
2022/08/10 10:21:19;;;;;;;16.00;4.85;;;;;;;30.36;52.02;102202.28;5075675;28;20487;-83
2022/08/10 10:24:09;;;;;;;14.73;5.53;;;;;;;29.91;50.49;102199.28;5045859;28;20021;-83
2022/08/10 10:26:59;;;;;;;20.33;5.88;;;;;;;30.37;49.47;102199.25;5076946;28;20055;-82
2022/08/10 10:29:43;;;;;;;21.17;5.90;;;;;;;30.69;45.73;102190.03;5071317;28;20041;-81
2022/08/10 10:32:44;;;;;;;20.92;5.65;;;;;;;30.31;46.58;102188.78;5066300;28;20040;-82
2022/08/10 10:35:22;;;;;;;13.57;5.93;;;;;;;30.41;49.32;102188.38;5062209;28;20051;-81
2022/08/10 10:37:51;;;;;;;17.73;6.18;;;;;;;30.82;47.20;102181.47;5057307;28;20021;-81
2022/08/10 10:40:20;;;;;;;24.50;6.35;;;;;;;30.33;47.83;102177.28;5061093;28;20350;-82
2022/08/10 10:42:57;;;;;;;21.45;6.10;;;;;;;30.61;44.67;102179.81;5061600;28;20041;-81
2022/08/10 10:45:41;;;;;;;17.92;6.13;;;;;;;30.62;43.69;102173.09;5074245;28;20079;-81
2022/08/10 10:48:25;;;;;;;17.67;6.07;;;;;;;30.44;44.82;102170.13;5041908;28;20072;-80
2022/08/10 10:51:06;;;;;;;17.92;6.90;;;;;;;31.13;40.27;102168.50;5058128;28;20104;-80
2022/08/10 10:54:06;;;;;;;15.23;6.35;;;;;;;30.77;42.94;102170.81;5073757;28;20036;-82
2022/08/10 10:56:55;;;;;;;18.50;6.85;;;;;;;30.27;46.24;102159.25;5056975;28;20476;-82
2022/08/10 10:59:37;;;;;;;19.63;6.38;;;;;;;30.98;41.42;102162.28;5075767;28;20487;-81
2022/08/10 11:02:23;;;;;;;29.55;8.43;;;;;;;30.46;42.17;102160.31;5076802;28;20036;-81
2022/08/10 11:04:57;;;;;;;18.05;6.88;;;;;;;30.41;44.11;102157.28;5074867;28;20041;-82
2022/08/10 11:07:45;;;;;;;18.55;7.78;;;;;;;30.34;41.50;102150.75;5076502;28;20380;-82
2022/08/10 11:10:19;;;;;;;19.35;7.68;;;;;;;30.32;44.35;102141.59;5077449;28;20458;-82
2022/08/10 11:13:11;;;;;;;23.45;8.40;;;;;;;31.04;44.23;102150.94;5075699;28;20472;-80
2022/08/10 11:15:47;;;;;;;28.90;8.15;;;;;;;30.86;45.78;102142.28;5028023;28;20045;-82
2022/08/10 11:18:47;;;;;;;24.58;8.55;;;;;;;30.29;43.03;102133.59;5071461;28;20050;-81
2022/08/10 11:21:56;;;;;;;22.45;8.23;;;;;;;30.63;44.66;102131.53;5075408;28;20067;-82
2022/08/10 11:24:37;;;;;;;31.23;8.45;;;;;;;30.26;40.63;102122.75;5056873;28;20514;-82
2022/08/10 11:27:16;;;;;;;25.48;8.18;;;;;;;30.84;39.49;102136.84;5070678;28;20029;-82
2022/08/10 11:29:55;;;;;;;24.17;8.80;;;;;;;30.59;40.66;102140.44;5039281;28;20116;-82
2022/08/10 11:32:45;;;;;;;22.67;8.38;;;;;;;30.25;40.80;102133.16;5066670;28;20115;-81
2022/08/10 11:35:18;;;;;;;23.83;8.77;;;;;;;30.98;38.91;102136.84;5055271;28;20139;-82
2022/08/10 11:38:09;;;;;;;27.63;9.02;;;;;;;30.87;41.36;102122.25;5067892;28;20037;-82
2022/08/10 11:40:49;;;;;;;18.43;8.13;;;;;;;30.48;43.71;102127.00;5076902;28;20028;-81